Rome, GA (30162)

11:24 PM EDT on April 25, 2015 (GMT -0400)
Rome | | Change Station
CLOSE
Current Station
Personal Weather Station
Location: Rome, GA
Elevation: 696 ft
Nearby Weather Stations

Elev 696 ft 34.24 °N, 85.16 °W | Updated 4 minutes ago

Clear
Clear
68.6 °F
Feels Like 68.6 °F
N
2.0
Wind Variable Wind from SSW
Gusts 7.0 mph

Today
High -- | Low -- °F
--% Chance of Precip.
Yesterday
High -- | Low -- °F
Precip. -- in
6:57 AM 8:19 PM
First Quarter, 51% visible
Pressure 29.59 in
Visibility 9.0 miles
Clouds Clear
Dew Point 55 °F
Humidity 63%
Rainfall 0.68 in
Snow Depth Not available.
UV 0 out of 12
Pollen .40 out of 12
Air Quality Not available.
Flu Activity Sporadic
METAR KRMG 260253Z AUTO 21004KT 9SM CLR 20/19 A2961 RMK AO2 SLP020 T02000189 53000 $

More Conditions Fewer Conditions

Pressure 29.59 in
Visibility 9.0 miles
Clouds Clear
Dew Point 55 °F
Humidity 63%
Rainfall 0.68 in
Snow Depth Not available.
UV 0 out of 12
Pollen .40 out of 12
Air Quality Not available.
Flu Activity Sporadic
METAR KRMG 260253Z AUTO 21004KT 9SM CLR 20/19 A2961 RMK AO2 SLP020 T02000189 53000 $

More Conditions Fewer Conditions

The full scope of the disaster following a powerful 7.8-magnitude earthquake in Nepal may not come into view for days, but global charities are already sending emergency aid. Click to see how you can help.

10-Day Weather Forecast

Almanac

Astronomy

Apr. 25, 2015 Rise Set
Actual Time
Civil Twilight
Nautical Twilight
Astronomical Twilight
Moon
Length of Visible Light
Length of Day
Tomorrow will be .
, % of the Moon is Illuminated

Today's Extremes

State Highs State Lows

Community

WunderPhotos

Upload Photos

1,816,918 photos uploaded!

WunderBlogs® & News

Nearby

Air Quality

  Air Quality AQ Index Pollutant
Not available.

Snow Depth

Station Depth Elevation

Earthquake Activity

City Distance Mag. Time & Date
Minimum magnitude displayed is 2.5.

Coastal Water Temperatures

Place Temperature

Stations

Nearby Weather Stations

Station Location Temp. Windchill Dew Point Humidity Wind Precip. Elev Updated Type